Time;durP1;ratioP1;P1;durP2;ratioP2;P2;SDS_P1;SDS_P2;PMS_P1;PMS_P2;Temp;Humidity;BMP_temperature;BMP_pressure;BME280_temperature;BME280_humidity;BME280_pressure;Samples;Min_cycle;Max_cycle;Signal;HPM_P1;HPM_P2
2021/07/09 00:02:08;;;;;;;14.02;7.72;;;716.90;1715.20;;;;;;5101754;28;20034;-84
2021/07/09 00:04:34;;;;;;;13.38;7.80;;;716.90;1715.20;;;;;;5112449;28;20020;-83
2021/07/09 00:07:00;;;;;;;14.50;7.00;;;716.80;1715.20;;;;;;5112506;28;20035;-83
2021/07/09 00:09:26;;;;;;;16.83;8.25;;;716.80;1715.20;;;;;;5112634;28;20016;-84
2021/07/09 00:11:55;;;;;;;9.40;6.30;;;716.80;1715.20;;;;;;5112841;28;20024;-84
2021/07/09 00:14:24;;;;;;;11.48;7.25;;;716.80;1715.20;;;;;;5115620;28;20038;-84
2021/07/09 00:16:50;;;;;;;10.90;7.25;;;716.80;1715.20;;;;;;5117330;28;20028;-84
2021/07/09 00:19:16;;;;;;;12.27;6.93;;;692.10;1689.60;;;;;;5119142;28;20059;-83
2021/07/09 00:21:42;;;;;;;15.57;7.00;;;716.80;1715.20;;;;;;5119346;28;20020;-84
2021/07/09 00:24:09;;;;;;;13.45;6.88;;;692.10;1689.60;;;;;;5119753;28;20432;-83
2021/07/09 00:26:35;;;;;;;16.10;7.03;;;691.90;1689.60;;;;;;5118581;28;20027;-84
2021/07/09 00:29:03;;;;;;;16.67;6.90;;;691.90;1689.60;;;;;;5117333;28;20020;-84
2021/07/09 00:31:30;;;;;;;20.67;6.80;;;691.90;1689.60;;;;;;5105278;28;20048;-83
2021/07/09 00:34:00;;;;;;;10.75;6.97;;;692.00;1689.60;;;;;;5118104;28;20046;-84
2021/07/09 00:36:27;;;;;;;14.80;6.00;;;691.90;1689.60;;;;;;5105068;28;20039;-84
2021/07/09 00:38:53;;;;;;;15.48;6.07;;;691.90;1689.60;;;;;;5118325;28;20024;-84
2021/07/09 00:41:19;;;;;;;10.60;5.78;;;691.80;1689.60;;;;;;5117800;28;20020;-83
2021/07/09 00:43:46;;;;;;;9.02;5.25;;;691.80;1664.00;;;;;;5117809;28;20044;-84
2021/07/09 00:46:12;;;;;;;11.15;5.82;;;691.80;1664.00;;;;;;5117790;28;20054;-84
2021/07/09 00:48:38;;;;;;;10.40;5.10;;;691.90;1664.00;;;;;;5117938;28;20077;-83
2021/07/09 00:51:10;;;;;;;9.82;5.35;;;691.80;1664.00;;;;;;5118391;28;20031;-84
2021/07/09 00:53:36;;;;;;;16.55;5.00;;;691.80;1664.00;;;;;;5118109;28;20416;-83
2021/07/09 00:56:03;;;;;;;9.45;4.90;;;691.80;1638.40;;;;;;5100412;28;20020;-83
2021/07/09 00:58:29;;;;;;;12.65;4.85;;;691.80;1664.00;;;;;;5117502;28;20476;-84
2021/07/09 01:00:57;;;;;;;15.02;5.47;;;691.80;1638.40;;;;;;5116534;28;20043;-84
2021/07/09 01:03:23;;;;;;;19.80;6.50;;;691.70;1664.00;;;;;;5115457;28;20023;-84
2021/07/09 01:05:49;;;;;;;23.52;5.50;;;691.70;1638.40;;;;;;5116639;28;20103;-84
2021/07/09 01:08:15;;;;;;;10.15;4.88;;;691.70;1638.40;;;;;;5115436;28;20051;-84
2021/07/09 01:10:47;;;;;;;12.68;4.88;;;691.70;1638.40;;;;;;5115370;28;20038;-84
2021/07/09 01:13:13;;;;;;;19.48;4.63;;;691.70;1638.40;;;;;;5115252;28;20032;-84
2021/07/09 01:15:39;;;;;;;9.25;4.60;;;691.70;1664.00;;;;;;5114784;28;20469;-83
2021/07/09 01:18:05;;;;;;;11.73;4.60;;;691.60;1664.00;;;;;;5115197;27;20046;-83
2021/07/09 01:20:31;;;;;;;10.40;4.40;;;691.60;1664.00;;;;;;5115088;28;20110;-84
2021/07/09 01:22:58;;;;;;;9.43;4.75;;;691.50;1664.00;;;;;;5114951;28;20019;-83
2021/07/09 01:25:26;;;;;;;11.60;4.60;;;691.60;1664.00;;;;;;5114845;28;20119;-83
2021/07/09 01:27:55;;;;;;;12.40;4.75;;;691.50;1664.00;;;;;;5114750;28;20039;-84
2021/07/09 01:30:23;;;;;;;16.40;4.90;;;691.50;1664.00;;;;;;5114988;28;20485;-84
2021/07/09 01:32:50;;;;;;;12.82;4.40;;;691.60;1664.00;;;;;;5114655;28;20481;-81
2021/07/09 01:35:16;;;;;;;12.10;4.93;;;691.40;1664.00;;;;;;5114924;28;20027;-82
2021/07/09 01:37:45;;;;;;;8.50;4.38;;;691.40;1689.60;;;;;;5114558;28;20058;-82
2021/07/09 01:40:11;;;;;;;13.43;4.40;;;691.30;1689.60;;;;;;5119790;28;20023;-83
2021/07/09 01:42:38;;;;;;;10.90;4.63;;;691.40;1689.60;;;;;;5136611;28;20026;-82
2021/07/09 01:45:05;;;;;;;11.60;5.03;;;691.40;1689.60;;;;;;5134737;28;20042;-83
2021/07/09 01:47:31;;;;;;;8.35;4.25;;;691.30;1715.20;;;;;;5114958;28;20035;-85
2021/07/09 01:49:59;;;;;;;18.73;4.38;;;691.30;1715.20;;;;;;5114932;28;20080;-83
2021/07/09 01:52:26;;;;;;;14.88;4.50;;;691.30;1715.20;;;;;;5115985;28;20024;-82
2021/07/09 01:54:53;;;;;;;11.02;4.65;;;691.20;1715.20;;;;;;5114605;28;20047;-83
2021/07/09 01:57:19;;;;;;;12.63;4.65;;;666.50;1715.20;;;;;;5114230;28;20031;-82
2021/07/09 01:59:45;;;;;;;6.13;4.18;;;691.30;1715.20;;;;;;5114292;28;20023;-82
2021/07/09 02:02:12;;;;;;;11.20;4.35;;;691.20;1740.80;;;;;;5114544;28;20023;-81
2021/07/09 02:04:50;;;;;;;11.82;4.70;;;666.50;1740.80;;;;;;5113986;28;20161;-82
2021/07/09 02:07:17;;;;;;;10.32;4.90;;;691.20;1740.80;;;;;;5114103;28;20035;-82
2021/07/09 02:09:48;;;;;;;12.50;4.63;;;666.50;1740.80;;;;;;5099586;28;20028;-81
2021/07/09 02:12:16;;;;;;;8.73;4.47;;;666.50;1766.40;;;;;;5114149;28;20024;-82
2021/07/09 02:14:42;;;;;;;8.82;4.45;;;666.30;1766.40;;;;;;5114076;28;20031;-81
2021/07/09 02:17:14;;;;;;;8.23;4.22;;;666.30;1766.40;;;;;;5113751;28;20100;-82
2021/07/09 02:19:41;;;;;;;11.18;4.72;;;666.30;1766.40;;;;;;5113744;28;20020;-83
2021/07/09 02:22:13;;;;;;;12.98;4.72;;;666.40;1766.40;;;;;;5113166;28;20500;-82
2021/07/09 02:24:44;;;;;;;10.18;4.85;;;666.30;1766.40;;;;;;5109165;28;20028;-82
2021/07/09 02:27:11;;;;;;;9.57;4.45;;;666.40;1766.40;;;;;;5104405;28;20016;-83
2021/07/09 02:29:37;;;;;;;7.88;4.50;;;666.30;1792.00;;;;;;5107519;27;20388;-83
2021/07/09 02:32:06;;;;;;;11.30;5.13;;;666.50;1766.40;;;;;;5112227;28;20469;-82
2021/07/09 02:34:33;;;;;;;9.23;4.32;;;666.30;1792.00;;;;;;5110606;28;20503;-83
2021/07/09 02:36:59;;;;;;;5.85;4.25;;;666.20;1792.00;;;;;;5105155;28;20134;-82
2021/07/09 02:39:25;;;;;;;11.50;4.75;;;666.30;1792.00;;;;;;5107866;28;20018;-83
2021/07/09 02:41:56;;;;;;;7.07;4.53;;;666.20;1792.00;;;;;;5104535;28;20032;-83
2021/07/09 02:44:22;;;;;;;9.05;4.53;;;666.20;1792.00;;;;;;5110300;28;20138;-85
2021/07/09 02:46:49;;;;;;;12.43;4.45;;;666.20;1792.00;;;;;;5104216;28;20024;-82
2021/07/09 02:49:15;;;;;;;16.42;5.22;;;666.20;1792.00;;;;;;5104596;28;20116;-83
2021/07/09 02:51:41;;;;;;;7.78;4.65;;;666.10;1792.00;;;;;;5106616;28;20073;-83
2021/07/09 02:54:07;;;;;;;10.00;4.82;;;666.10;1792.00;;;;;;5135746;27;20027;-83
2021/07/09 02:56:33;;;;;;;12.88;4.43;;;666.10;1792.00;;;;;;5106394;28;20028;-83
2021/07/09 02:58:59;;;;;;;8.20;5.40;;;666.00;1817.60;;;;;;5108040;28;20098;-83
2021/07/09 03:01:25;;;;;;;16.23;5.05;;;666.00;1817.60;;;;;;5105761;28;20043;-82
2021/07/09 03:03:52;;;;;;;16.35;5.15;;;666.00;1817.60;;;;;;5104350;28;20038;-83
2021/07/09 03:06:20;;;;;;;14.05;5.05;;;666.00;1817.60;;;;;;5107786;28;20028;-82
2021/07/09 03:08:45;;;;;;;14.05;5.18;;;666.00;1817.60;;;;;;5105631;28;20023;-82
2021/07/09 03:11:11;;;;;;;14.05;5.38;;;665.90;1817.60;;;;;;5102880;28;20032;-82
2021/07/09 03:13:37;;;;;;;14.20;5.25;;;665.90;1817.60;;;;;;5099146;28;20055;-82
2021/07/09 03:16:03;;;;;;;28.17;7.18;;;665.90;1817.60;;;;;;5102412;28;20099;-82
2021/07/09 03:18:28;;;;;;;18.55;6.45;;;665.90;1817.60;;;;;;5105257;28;20076;-82
2021/07/09 03:20:54;;;;;;;16.67;6.00;;;665.90;1817.60;;;;;;5100268;28;20073;-82
2021/07/09 03:23:21;;;;;;;28.30;6.53;;;665.90;1817.60;;;;;;5107390;28;20035;-82
2021/07/09 03:25:46;;;;;;;14.02;5.10;;;665.90;1817.60;;;;;;5105194;28;20052;-82
2021/07/09 03:28:12;;;;;;;26.80;7.13;;;665.90;1817.60;;;;;;5097908;28;20050;-82
2021/07/09 03:30:39;;;;;;;16.50;6.20;;;665.90;1817.60;;;;;;5094675;28;20031;-82
2021/07/09 03:33:04;;;;;;;17.67;5.47;;;665.90;1817.60;;;;;;5104945;28;20020;-83
2021/07/09 03:35:30;;;;;;;18.15;5.13;;;665.90;1817.60;;;;;;5100310;28;20023;-83
2021/07/09 03:37:56;;;;;;;28.92;6.10;;;666.00;1817.60;;;;;;5106586;28;20070;-82
2021/07/09 03:40:22;;;;;;;21.15;6.53;;;666.00;1817.60;;;;;;5105976;28;20035;-84
2021/07/09 03:42:47;;;;;;;20.08;5.38;;;666.00;1817.60;;;;;;5105324;28;20053;-82
2021/07/09 03:45:13;;;;;;;22.38;6.63;;;666.00;1817.60;;;;;;5137643;27;20039;-82
2021/07/09 03:47:39;;;;;;;26.50;6.07;;;666.00;1817.60;;;;;;5104466;28;20077;-84
2021/07/09 03:50:06;;;;;;;19.80;6.32;;;666.10;1817.60;;;;;;5105350;28;20109;-86
2021/07/09 03:52:32;;;;;;;13.82;5.10;;;666.10;1817.60;;;;;;5104452;28;20024;-87
2021/07/09 03:54:58;;;;;;;15.05;6.63;;;666.20;1817.60;;;;;;5104446;28;20575;-88
2021/07/09 03:57:23;;;;;;;24.95;5.95;;;666.20;1792.00;;;;;;5102259;28;20040;-84
2021/07/09 03:59:49;;;;;;;12.98;5.47;;;666.20;1792.00;;;;;;5109010;28;20169;-87
2021/07/09 04:02:15;;;;;;;23.10;6.20;;;666.30;1792.00;;;;;;5139514;27;20487;-85
2021/07/09 04:04:40;;;;;;;9.82;5.65;;;666.20;1792.00;;;;;;5105656;28;20026;-84
2021/07/09 04:07:06;;;;;;;10.30;5.20;;;666.30;1792.00;;;;;;5102973;28;20437;-85
2021/07/09 04:09:32;;;;;;;10.88;5.10;;;666.20;1792.00;;;;;;5106616;28;20011;-86
2021/07/09 04:11:58;;;;;;;14.25;5.45;;;666.30;1792.00;;;;;;5097275;28;20099;-83
2021/07/09 04:14:24;;;;;;;15.80;5.13;;;666.30;1792.00;;;;;;5097039;28;20028;-82
2021/07/09 04:16:49;;;;;;;17.45;6.28;;;666.30;1792.00;;;;;;5105416;28;20122;-83
2021/07/09 04:19:15;;;;;;;12.32;5.78;;;666.50;1792.00;;;;;;5104078;28;20020;-84
2021/07/09 04:21:41;;;;;;;11.30;4.80;;;666.50;1792.00;;;;;;5100426;28;20032;-84
2021/07/09 04:24:07;;;;;;;11.18;5.93;;;666.50;1792.00;;;;;;5102640;28;20020;-83
2021/07/09 04:26:34;;;;;;;15.73;5.22;;;666.50;1792.00;;;;;;5107882;28;20477;-83
2021/07/09 04:29:00;;;;;;;15.88;5.45;;;666.50;1766.40;;;;;;5102698;28;20028;-86
2021/07/09 04:31:25;;;;;;;20.02;6.63;;;691.20;1792.00;;;;;;5101120;28;20023;-83
2021/07/09 04:33:51;;;;;;;15.40;5.97;;;691.20;1792.00;;;;;;5104628;28;20028;-85
2021/07/09 04:36:17;;;;;;;13.57;5.40;;;691.20;1792.00;;;;;;5109229;28;20020;-85
2021/07/09 04:38:43;;;;;;;13.60;5.90;;;691.20;1792.00;;;;;;5102594;28;20460;-85
2021/07/09 04:41:09;;;;;;;7.97;5.45;;;691.20;1766.40;;;;;;5101849;28;20015;-82
2021/07/09 04:43:38;;;;;;;8.50;5.53;;;691.20;1766.40;;;;;;5099159;28;20055;-84
2021/07/09 04:46:05;;;;;;;17.65;5.65;;;691.30;1766.40;;;;;;5104546;28;20110;-84
2021/07/09 04:48:31;;;;;;;14.25;6.13;;;691.20;1766.40;;;;;;5135341;27;20460;-82
2021/07/09 04:50:57;;;;;;;18.58;5.88;;;691.30;1766.40;;;;;;5103990;28;20032;-83
2021/07/09 04:53:23;;;;;;;20.85;5.40;;;691.40;1766.40;;;;;;5099864;28;20024;-82
2021/07/09 04:55:48;;;;;;;10.00;4.95;;;691.40;1766.40;;;;;;5100864;28;20446;-83
2021/07/09 04:58:14;;;;;;;23.30;5.80;;;691.40;1766.40;;;;;;5108423;28;20035;-84
2021/07/09 05:00:40;;;;;;;9.88;4.43;;;691.50;1766.40;;;;;;5109725;28;20024;-83
2021/07/09 05:03:06;;;;;;;15.90;6.30;;;691.60;1766.40;;;;;;5107847;28;20023;-81
2021/07/09 05:05:31;;;;;;;27.88;5.70;;;691.60;1740.80;;;;;;5101842;28;20501;-81
2021/07/09 05:07:57;;;;;;;17.30;5.32;;;691.70;1740.80;;;;;;5127643;28;20019;-82
2021/07/09 05:10:23;;;;;;;46.25;7.93;;;691.70;1740.80;;;;;;5131628;28;20020;-81
2021/07/09 05:12:49;;;;;;;13.32;5.32;;;691.80;1715.20;;;;;;5119852;28;20110;-81
2021/07/09 05:15:15;;;;;;;16.48;6.00;;;691.90;1715.20;;;;;;5115842;28;20033;-83
2021/07/09 05:17:41;;;;;;;13.30;5.32;;;692.00;1715.20;;;;;;5114897;28;20130;-83
2021/07/09 05:20:07;;;;;;;15.43;5.72;;;692.10;1715.20;;;;;;5114854;27;20472;-84
2021/07/09 05:22:33;;;;;;;11.68;4.75;;;692.10;1689.60;;;;;;5115128;27;20447;-82
2021/07/09 05:24:59;;;;;;;10.85;6.53;;;716.80;1715.20;;;;;;5115115;27;20028;-82
2021/07/09 05:27:30;;;;;;;12.20;5.32;;;716.80;1715.20;;;;;;5114604;28;20132;-80
2021/07/09 05:29:56;;;;;;;18.23;5.85;;;716.80;1715.20;;;;;;5114920;28;20020;-81
2021/07/09 05:32:26;;;;;;;17.80;6.10;;;716.80;1715.20;;;;;;5114408;27;20042;-84
2021/07/09 05:34:53;;;;;;;14.13;5.78;;;716.80;1715.20;;;;;;5114665;28;20097;-84
2021/07/09 05:37:19;;;;;;;7.45;5.07;;;716.90;1715.20;;;;;;5107119;28;20059;-82
2021/07/09 05:39:45;;;;;;;18.65;5.85;;;716.80;1715.20;;;;;;5113687;28;20489;-83
2021/07/09 05:42:11;;;;;;;17.00;5.93;;;716.90;1715.20;;;;;;5106232;27;20485;-84
2021/07/09 05:44:38;;;;;;;12.13;5.75;;;717.10;1689.60;;;;;;5105852;28;20059;-83
2021/07/09 05:47:04;;;;;;;16.80;5.63;;;717.20;1715.20;;;;;;5114756;28;20043;-82
2021/07/09 05:49:29;;;;;;;17.25;6.32;;;717.20;1689.60;;;;;;5114960;28;20019;-80
2021/07/09 05:51:55;;;;;;;14.50;5.80;;;717.10;1689.60;;;;;;5114447;28;20028;-81
2021/07/09 05:54:21;;;;;;;20.00;6.03;;;717.10;1689.60;;;;;;5113008;28;20393;-81
2021/07/09 05:56:46;;;;;;;27.50;6.55;;;717.20;1689.60;;;;;;5106557;28;20173;-82
2021/07/09 05:59:12;;;;;;;21.13;6.25;;;717.00;1689.60;;;;;;5099955;28;20048;-79
2021/07/09 06:01:38;;;;;;;13.38;5.15;;;717.10;1689.60;;;;;;5109240;28;20027;-80
2021/07/09 06:04:04;;;;;;;17.13;6.82;;;717.20;1689.60;;;;;;5112265;28;20023;-81
2021/07/09 06:06:30;;;;;;;11.18;5.45;;;717.20;1689.60;;;;;;5102993;28;20025;-82
2021/07/09 06:08:56;;;;;;;29.73;6.07;;;717.30;1664.00;;;;;;5107708;28;20027;-81
2021/07/09 06:11:22;;;;;;;19.80;5.10;;;717.40;1664.00;;;;;;5101733;28;20485;-85
2021/07/09 06:13:47;;;;;;;15.15;5.55;;;717.50;1638.40;;;;;;5112159;28;20051;-81
2021/07/09 06:16:16;;;;;;;29.25;6.75;;;717.50;1664.00;;;;;;5106990;28;20069;-80
2021/07/09 06:18:42;;;;;;;20.25;5.75;;;717.50;1638.40;;;;;;5108470;28;20084;-82
2021/07/09 06:21:08;;;;;;;19.02;5.38;;;717.50;1638.40;;;;;;5105120;28;20384;-80
2021/07/09 06:23:33;;;;;;;19.35;5.25;;;717.50;1612.80;;;;;;5103002;28;20020;-80
2021/07/09 06:25:59;;;;;;;13.60;5.65;;;717.70;1612.80;;;;;;5103120;28;20028;-80
2021/07/09 06:28:25;;;;;;;9.25;5.20;;;717.70;1612.80;;;;;;5137165;27;20107;-82
2021/07/09 06:30:51;;;;;;;9.65;4.78;;;742.40;1612.80;;;;;;5111543;28;20046;-83
2021/07/09 06:33:16;;;;;;;14.55;4.78;;;742.40;1612.80;;;;;;5111757;28;20097;-81
2021/07/09 06:35:42;;;;;;;16.90;5.50;;;742.40;1612.80;;;;;;5111073;28;20477;-85
2021/07/09 06:38:08;;;;;;;12.95;4.95;;;742.40;1612.80;;;;;;5100366;28;20065;-80
2021/07/09 06:40:34;;;;;;;20.33;6.38;;;742.50;1612.80;;;;;;5112690;28;20489;-82
2021/07/09 06:43:00;;;;;;;11.25;5.43;;;742.60;1612.80;;;;;;5110776;28;20115;-80
2021/07/09 06:45:26;;;;;;;24.77;6.13;;;742.80;1612.80;;;;;;5112959;28;20055;-81
2021/07/09 06:47:52;;;;;;;18.75;5.72;;;742.90;1587.20;;;;;;5112674;28;20466;-80
2021/07/09 06:50:18;;;;;;;13.20;5.32;;;742.90;1561.60;;;;;;5112186;28;20135;-83
2021/07/09 06:52:44;;;;;;;17.42;5.80;;;742.70;1587.20;;;;;;5110823;28;20041;-79
2021/07/09 06:55:14;;;;;;;19.33;5.55;;;742.90;1561.60;;;;;;5113477;28;20134;-80
2021/07/09 06:57:46;;;;;;;20.65;7.05;;;742.90;1561.60;;;;;;5111740;28;20038;-81
2021/07/09 07:00:17;;;;;;;13.25;6.40;;;743.00;1536.00;;;;;;5112538;28;20016;-81
2021/07/09 07:02:44;;;;;;;16.55;5.32;;;743.00;1536.00;;;;;;5112697;28;20030;-80
2021/07/09 07:05:10;;;;;;;17.17;6.15;;;743.00;1536.00;;;;;;5112362;28;20084;-82
2021/07/09 07:07:36;;;;;;;16.60;6.53;;;743.10;1510.40;;;;;;5111887;28;20047;-83
2021/07/09 07:10:06;;;;;;;18.17;5.38;;;743.10;1484.80;;;;;;5111068;28;20043;-80
2021/07/09 07:12:32;;;;;;;18.08;5.40;;;743.10;1510.40;;;;;;5111144;28;20035;-79
2021/07/09 07:14:58;;;;;;;14.35;5.78;;;768.00;1510.40;;;;;;5110300;28;20540;-85
2021/07/09 07:17:24;;;;;;;15.32;5.40;;;768.00;1510.40;;;;;;5111279;28;20131;-79
2021/07/09 07:19:50;;;;;;;18.58;5.95;;;768.00;1484.80;;;;;;5111112;28;20020;-80
2021/07/09 07:22:15;;;;;;;21.73;5.90;;;768.10;1459.20;;;;;;5111599;28;20084;-81
2021/07/09 07:24:41;;;;;;;19.30;6.78;;;768.30;1484.80;;;;;;5111156;28;20393;-81
2021/07/09 07:27:07;;;;;;;12.57;6.25;;;768.40;1459.20;;;;;;5112033;28;20023;-81
2021/07/09 07:29:33;;;;;;;11.15;5.05;;;768.40;1459.20;;;;;;5113189;28;20027;-81
2021/07/09 07:31:59;;;;;;;25.25;6.22;;;768.40;1459.20;;;;;;5111667;28;20030;-80
2021/07/09 07:34:25;;;;;;;23.17;6.43;;;768.40;1433.60;;;;;;5108165;28;20024;-79
2021/07/09 07:36:50;;;;;;;13.70;6.13;;;768.40;1459.20;;;;;;5102183;28;20521;-82
2021/07/09 07:39:16;;;;;;;24.45;6.13;;;768.20;1459.20;;;;;;5111645;28;20485;-79
2021/07/09 07:41:42;;;;;;;16.60;5.60;;;768.40;1433.60;;;;;;5111934;28;20084;-81
2021/07/09 07:44:09;;;;;;;21.55;5.55;;;768.50;1433.60;;;;;;5111698;28;20439;-82
2021/07/09 07:46:34;;;;;;;15.35;6.30;;;768.60;1408.00;;;;;;5111498;28;20019;-78
2021/07/09 07:49:00;;;;;;;25.55;5.53;;;768.90;1408.00;;;;;;5111242;28;20377;-83
2021/07/09 07:51:26;;;;;;;13.50;5.40;;;768.90;1408.00;;;;;;5111679;28;20016;-81
2021/07/09 07:53:52;;;;;;;15.80;5.45;;;793.80;1433.60;;;;;;5111699;28;20483;-79
2021/07/09 07:56:19;;;;;;;24.75;6.50;;;794.00;1408.00;;;;;;5112755;28;20023;-78
2021/07/09 07:58:45;;;;;;;23.23;6.22;;;793.60;1408.00;;;;;;5103603;28;20024;-85
2021/07/09 08:01:13;;;;;;;27.27;7.63;;;768.90;1408.00;;;;;;5105088;28;20094;-79
2021/07/09 08:03:38;;;;;;;18.85;5.03;;;768.80;1408.00;;;;;;5097290;28;20062;-79
2021/07/09 08:06:05;;;;;;;24.10;5.32;;;768.90;1382.40;;;;;;5111156;28;20059;-80
2021/07/09 08:08:32;;;;;;;25.13;5.95;;;768.90;1408.00;;;;;;5112282;28;20019;-79
2021/07/09 08:10:58;;;;;;;14.85;5.10;;;768.80;1382.40;;;;;;5110919;28;20080;-80
2021/07/09 08:13:24;;;;;;;15.70;5.68;;;768.70;1382.40;;;;;;5111643;28;20054;-80
2021/07/09 08:15:50;;;;;;;22.10;5.88;;;768.70;1382.40;;;;;;5112166;28;20535;-83
2021/07/09 08:18:15;;;;;;;19.25;5.55;;;768.90;1382.40;;;;;;5110879;28;20358;-79
2021/07/09 08:20:42;;;;;;;13.57;5.68;;;768.90;1356.80;;;;;;5110807;28;20020;-80
2021/07/09 08:23:08;;;;;;;22.17;6.55;;;768.70;1382.40;;;;;;5111541;28;20134;-80
2021/07/09 08:25:34;;;;;;;16.95;4.97;;;768.90;1382.40;;;;;;5110405;28;20072;-79
2021/07/09 08:28:00;;;;;;;14.90;5.07;;;793.90;1382.40;;;;;;5105983;28;20035;-80
2021/07/09 08:30:25;;;;;;;25.35;5.40;;;794.00;1356.80;;;;;;5111721;28;20554;-80
2021/07/09 08:32:51;;;;;;;12.43;5.47;;;794.20;1356.80;;;;;;5114273;28;20031;-79
2021/07/09 08:35:17;;;;;;;21.02;5.95;;;794.10;1356.80;;;;;;5124191;28;20027;-80
2021/07/09 08:37:43;;;;;;;19.52;5.43;;;794.00;1382.40;;;;;;5120849;28;20807;-79
2021/07/09 08:40:10;;;;;;;37.13;7.90;;;794.40;1356.80;;;;;;5110379;28;20019;-79
2021/07/09 08:42:37;;;;;;;34.90;6.40;;;794.50;1331.20;;;;;;5112186;28;20057;-81
2021/07/09 08:45:07;;;;;;;23.70;6.32;;;794.50;1331.20;;;;;;5114432;28;20123;-79
2021/07/09 08:47:34;;;;;;;19.10;5.30;;;794.50;1356.80;;;;;;5115293;28;20032;-79
2021/07/09 08:50:03;;;;;;;19.98;5.68;;;794.50;1331.20;;;;;;5105823;28;20024;-79
2021/07/09 08:52:29;;;;;;;17.30;5.88;;;819.30;1305.60;;;;;;5105735;28;20027;-79
2021/07/09 08:54:55;;;;;;;12.40;4.93;;;794.50;1331.20;;;;;;5104006;27;20031;-78
2021/07/09 08:57:20;;;;;;;29.70;5.63;;;819.50;1331.20;;;;;;5099405;28;20548;-80
2021/07/09 08:59:46;;;;;;;16.73;5.75;;;819.50;1305.60;;;;;;5101471;28;20107;-79
2021/07/09 09:02:12;;;;;;;32.50;6.07;;;819.80;1305.60;;;;;;5109025;28;20102;-79
2021/07/09 09:04:39;;;;;;;30.48;7.47;;;819.80;1280.00;;;;;;5115342;28;20023;-79
2021/07/09 09:07:08;;;;;;;12.07;4.60;;;819.80;1280.00;;;;;;5115162;28;20081;-80
2021/07/09 09:09:36;;;;;;;15.00;4.70;;;819.80;1280.00;;;;;;5109225;28;20008;-79
2021/07/09 09:12:08;;;;;;;14.63;4.95;;;819.60;1305.60;;;;;;5103807;28;20023;-81
2021/07/09 09:14:37;;;;;;;16.17;4.90;;;819.60;1280.00;;;;;;5104693;28;20107;-80
2021/07/09 09:17:33;;;;;;;9.10;4.43;;;819.60;1305.60;;;;;;5101551;28;20036;-79
2021/07/09 09:20:11;;;;;;;14.57;5.60;;;819.60;1305.60;;;;;;5104396;28;20513;-83
2021/07/09 09:22:49;;;;;;;11.93;4.50;;;819.60;1280.00;;;;;;5114461;28;20324;-87
2021/07/09 09:25:23;;;;;;;16.77;4.40;;;819.60;1280.00;;;;;;5105152;28;20047;-78
2021/07/09 09:28:04;;;;;;;11.15;4.60;;;819.70;1280.00;;;;;;5113853;28;20103;-78
2021/07/09 09:30:30;;;;;;;12.05;5.05;;;819.70;1280.00;;;;;;5115191;27;20021;-82
2021/07/09 09:33:01;;;;;;;13.48;5.10;;;819.60;1280.00;;;;;;5113448;28;20389;-80
2021/07/09 09:35:32;;;;;;;13.70;4.93;;;819.90;1254.40;;;;;;5099790;28;20035;-82
2021/07/09 09:38:00;;;;;;;16.20;5.32;;;819.80;1254.40;;;;;;5097089;28;20031;-83
2021/07/09 09:40:28;;;;;;;11.85;4.43;;;819.70;1280.00;;;;;;5095705;28;20020;-78
2021/07/09 09:42:54;;;;;;;11.93;4.72;;;819.80;1254.40;;;;;;5110713;28;20477;-86
2021/07/09 09:45:22;;;;;;;16.65;5.82;;;819.90;1280.00;;;;;;5106520;28;20044;-77
2021/07/09 09:47:49;;;;;;;16.95;5.00;;;820.10;1280.00;;;;;;5104522;28;20203;-80
2021/07/09 09:50:18;;;;;;;15.52;4.80;;;844.90;1280.00;;;;;;5112834;28;20049;-85
2021/07/09 09:52:49;;;;;;;9.55;4.53;;;845.20;1254.40;;;;;;5113383;28;20036;-82
2021/07/09 09:55:18;;;;;;;13.93;4.47;;;845.40;1254.40;;;;;;5113461;28;20026;-82
2021/07/09 09:57:45;;;;;;;10.43;4.28;;;845.30;1228.80;;;;;;5113506;28;20035;-82
2021/07/09 10:00:29;;;;;;;18.40;4.95;;;845.30;1254.40;;;;;;5114801;28;20542;-80
2021/07/09 10:02:55;;;;;;;22.83;5.70;;;845.30;1254.40;;;;;;5114405;28;20043;-81
2021/07/09 10:05:21;;;;;;;12.30;4.85;;;844.90;1254.40;;;;;;5108255;28;20023;-82
2021/07/09 10:07:47;;;;;;;15.10;4.78;;;845.00;1254.40;;;;;;5104542;27;20078;-82
2021/07/09 10:10:15;;;;;;;12.80;4.95;;;844.90;1254.40;;;;;;5106683;28;20027;-82
2021/07/09 10:12:49;;;;;;;10.70;4.72;;;845.00;1254.40;;;;;;5113808;28;20027;-81
2021/07/09 10:15:16;;;;;;;10.93;5.28;;;845.20;1228.80;;;;;;5113213;28;20449;-80
2021/07/09 10:17:47;;;;;;;10.15;4.30;;;870.50;1203.20;;;;;;5107765;27;20485;-80
2021/07/09 10:20:13;;;;;;;8.20;4.70;;;870.60;1203.20;;;;;;5107414;28;20139;-84
2021/07/09 10:22:39;;;;;;;8.00;4.85;;;870.50;1203.20;;;;;;5107936;28;20104;-81
2021/07/09 10:25:06;;;;;;;10.55;4.90;;;870.60;1203.20;;;;;;5107990;28;20403;-84
2021/07/09 10:27:33;;;;;;;12.10;4.70;;;870.50;1177.60;;;;;;5113640;28;20069;-80
2021/07/09 10:30:05;;;;;;;11.90;4.45;;;845.60;1203.20;;;;;;5113334;28;20031;-85
2021/07/09 10:32:34;;;;;;;13.43;5.50;;;870.50;1203.20;;;;;;5113185;28;20031;-80
2021/07/09 10:35:01;;;;;;;12.00;5.25;;;870.50;1203.20;;;;;;5113176;28;20051;-78
2021/07/09 10:37:30;;;;;;;8.77;4.85;;;870.80;1177.60;;;;;;5113815;28;20057;-86
2021/07/09 10:40:19;;;;;;;10.65;5.15;;;870.90;1152.00;;;;;;5094546;28;20016;-82
2021/07/09 10:42:47;;;;;;;9.98;4.70;;;871.00;1177.60;;;;;;5109545;28;20024;-81
2021/07/09 10:45:25;;;;;;;12.15;5.07;;;871.00;1177.60;;;;;;5113174;28;20048;-83
2021/07/09 10:48:10;;;;;;;9.75;4.95;;;870.50;1203.20;;;;;;5113786;28;20047;-82
2021/07/09 10:50:56;;;;;;;15.15;4.60;;;845.70;1203.20;;;;;;5103504;28;20089;-83
2021/07/09 10:53:29;;;;;;;10.00;4.43;;;845.70;1228.80;;;;;;5112791;28;20111;-79
2021/07/09 10:56:05;;;;;;;11.20;4.60;;;870.50;1203.20;;;;;;5112755;28;20020;-83
2021/07/09 10:58:43;;;;;;;8.32;4.75;;;870.60;1228.80;;;;;;5104684;28;20035;-86
2021/07/09 11:01:16;;;;;;;11.80;5.20;;;870.70;1203.20;;;;;;5111513;28;20032;-81
2021/07/09 11:04:07;;;;;;;10.15;4.78;;;870.90;1177.60;;;;;;5098840;28;20035;-82
2021/07/09 11:06:32;;;;;;;10.70;4.40;;;870.80;1177.60;;;;;;5112252;28;20085;-80
2021/07/09 11:09:09;;;;;;;17.90;5.35;;;870.60;1203.20;;;;;;5112404;28;20488;-80
2021/07/09 11:11:50;;;;;;;8.30;4.28;;;870.70;1177.60;;;;;;5109632;28;20107;-82
2021/07/09 11:14:36;;;;;;;6.25;4.35;;;870.40;1203.20;;;;;;5110018;28;20377;-84
2021/07/09 11:17:17;;;;;;;13.68;4.90;;;845.70;1228.80;;;;;;5111856;28;20027;-81
2021/07/09 11:19:43;;;;;;;12.38;5.00;;;845.60;1228.80;;;;;;5110611;28;20032;-80
2021/07/09 11:22:10;;;;;;;14.68;5.13;;;845.40;1228.80;;;;;;5110780;28;20083;-80
2021/07/09 11:24:53;;;;;;;9.73;4.75;;;845.50;1254.40;;;;;;5108711;28;20091;-83
2021/07/09 11:27:21;;;;;;;15.98;4.82;;;845.70;1228.80;;;;;;5109431;28;20034;-79
2021/07/09 11:29:48;;;;;;;15.38;5.93;;;870.40;1228.80;;;;;;5112088;28;20556;-79
2021/07/09 11:32:18;;;;;;;8.05;4.85;;;870.50;1228.80;;;;;;5105549;28;20030;-82
2021/07/09 11:34:46;;;;;;;11.20;5.10;;;870.70;1203.20;;;;;;5097766;28;20008;-80
2021/07/09 11:37:31;;;;;;;10.63;4.78;;;870.70;1203.20;;;;;;5105204;28;20038;-80
2021/07/09 11:39:59;;;;;;;7.30;4.82;;;870.60;1203.20;;;;;;5099199;28;20023;-81
2021/07/09 11:42:31;;;;;;;15.45;4.88;;;870.50;1228.80;;;;;;5099874;28;20020;-81
2021/07/09 11:44:58;;;;;;;13.27;4.88;;;870.90;1177.60;;;;;;5139435;27;20097;-83
2021/07/09 11:47:30;;;;;;;8.05;4.28;;;870.90;1203.20;;;;;;5104748;28;20555;-82
2021/07/09 11:49:58;;;;;;;9.30;5.40;;;871.10;1177.60;;;;;;5112036;28;20019;-85
2021/07/09 11:52:31;;;;;;;13.25;4.70;;;871.00;1203.20;;;;;;5112257;28;20044;-80
2021/07/09 11:54:58;;;;;;;14.20;4.78;;;870.90;1203.20;;;;;;5112017;28;20064;-83
2021/07/09 11:57:30;;;;;;;9.93;4.43;;;870.80;1203.20;;;;;;5111688;28;20030;-81
2021/07/09 11:59:57;;;;;;;15.10;5.00;;;870.80;1203.20;;;;;;5100664;28;20019;-83
2021/07/09 12:02:28;;;;;;;8.95;4.15;;;870.70;1203.20;;;;;;5103403;28;20431;-80
2021/07/09 12:04:56;;;;;;;7.53;4.45;;;870.50;1203.20;;;;;;5093955;28;20082;-84
2021/07/09 12:07:32;;;;;;;9.05;4.70;;;870.50;1203.20;;;;;;5092070;28;20023;-76
2021/07/09 12:09:59;;;;;;;8.90;4.78;;;870.50;1228.80;;;;;;5095514;28;20077;-84
2021/07/09 12:12:30;;;;;;;13.45;5.63;;;870.50;1203.20;;;;;;5104988;28;20017;-86